createdAt,value
2023-04-17T00:00:53.467Z,98194.38
2023-04-17T00:03:22.620Z,98189.22
2023-04-17T00:05:54.179Z,98181.19
2023-04-17T00:08:23.234Z,98187.59
2023-04-17T00:11:00.664Z,98188.41
2023-04-17T00:13:38.036Z,98186.00
2023-04-17T00:16:10.675Z,98183.22
2023-04-17T00:18:39.858Z,98195.63
2023-04-17T00:21:08.900Z,98181.25
2023-04-17T00:23:38.008Z,98178.84
2023-04-17T00:26:07.184Z,98173.25
2023-04-17T00:28:37.617Z,98182.44
2023-04-17T00:31:06.766Z,98177.22
2023-04-17T00:33:36.124Z,98171.66
2023-04-17T00:36:07.196Z,98170.44
2023-04-17T00:38:36.437Z,98162.88
2023-04-17T00:41:05.679Z,98173.66
2023-04-17T00:43:34.765Z,98162.84
2023-04-17T00:46:09.052Z,98162.88
2023-04-17T00:48:40.980Z,98160.47
2023-04-17T00:51:10.047Z,98165.25
2023-04-17T00:53:39.428Z,98156.47
2023-04-17T00:56:09.515Z,98152.06
2023-04-17T00:58:39.282Z,98152.44
2023-04-17T01:01:10.429Z,98150.06
2023-04-17T01:03:39.658Z,98150.88
2023-04-17T01:06:08.985Z,98142.06
2023-04-17T01:08:42.947Z,98146.06
2023-04-17T01:11:13.153Z,98144.47
2023-04-17T01:13:47.389Z,98152.47
2023-04-17T01:16:18.972Z,98149.28
2023-04-17T01:18:49.257Z,98139.69
2023-04-17T01:21:18.368Z,98144.47
2023-04-17T01:23:52.073Z,98141.28
2023-04-17T01:26:25.507Z,98142.88
2023-04-17T01:28:57.657Z,98131.69
2023-04-17T01:31:28.172Z,98126.09
2023-04-17T01:33:57.436Z,98132.50
2023-04-17T01:36:27.690Z,98129.69
2023-04-17T01:38:56.796Z,98131.69
2023-04-17T01:41:27.334Z,98135.66
2023-04-17T01:43:56.389Z,98128.47
2023-04-17T01:46:25.623Z,98129.25
2023-04-17T01:48:55.116Z,98124.84
2023-04-17T01:51:24.192Z,98118.06
2023-04-17T01:53:53.409Z,98116.81
2023-04-17T01:56:22.872Z,98116.38
2023-04-17T01:58:53.321Z,98111.53
2023-04-17T02:01:22.563Z,98117.09
2023-04-17T02:03:51.742Z,98122.59
2023-04-17T02:06:20.965Z,98125.75
2023-04-17T02:08:49.975Z,98122.56
2023-04-17T02:11:18.968Z,98124.09
2023-04-17T02:13:48.054Z,98124.47
2023-04-17T02:16:21.766Z,98118.53
2023-04-17T02:18:51.857Z,98116.16
2023-04-17T02:21:21.220Z,98113.34
2023-04-17T02:23:50.287Z,98114.94
2023-04-17T02:26:19.317Z,98112.09
2023-04-17T02:28:48.451Z,98107.28
2023-04-17T02:31:18.943Z,98105.75
2023-04-17T02:33:48.361Z,98110.50
2023-04-17T02:36:18.240Z,98105.00
2023-04-17T02:38:48.131Z,98098.28
2023-04-17T02:41:17.155Z,98099.53
2023-04-17T02:43:47.159Z,98103.84
2023-04-17T02:46:21.228Z,98097.03
2023-04-17T02:48:50.327Z,98104.19
2023-04-17T02:51:19.338Z,98098.31
2023-04-17T02:53:49.214Z,98095.09
2023-04-17T02:56:18.843Z,98108.25
2023-04-17T02:58:47.883Z,98111.44
2023-04-17T03:01:16.949Z,98102.72
2023-04-17T03:03:49.863Z,98108.31
2023-04-17T03:06:19.126Z,98106.69
2023-04-17T03:08:48.207Z,98110.66
2023-04-17T03:11:18.040Z,98099.53
2023-04-17T03:13:47.090Z,98114.28
2023-04-17T03:16:16.415Z,98113.50
2023-04-17T03:18:49.539Z,98114.34
2023-04-17T03:21:18.622Z,98113.91
2023-04-17T03:23:47.698Z,98107.56
2023-04-17T03:26:17.034Z,98110.75
2023-04-17T03:28:46.129Z,98102.75
2023-04-17T03:31:16.251Z,98114.31
2023-04-17T03:33:45.362Z,98104.41
2023-04-17T03:36:16.968Z,98104.84
2023-04-17T03:38:46.379Z,98103.28
2023-04-17T03:41:18.280Z,98108.44
2023-04-17T03:43:47.682Z,98103.66
2023-04-17T03:46:17.332Z,98114.00
2023-04-17T03:48:46.506Z,98115.16
2023-04-17T03:51:17.517Z,98117.16
2023-04-17T03:53:46.637Z,98117.09
2023-04-17T03:56:16.145Z,98109.16
2023-04-17T03:58:47.080Z,98120.31
2023-04-17T04:01:19.788Z,98115.13
2023-04-17T04:04:04.796Z,98113.13
2023-04-17T04:06:35.570Z,98111.59
2023-04-17T04:09:05.182Z,98110.03
2023-04-17T04:11:34.171Z,98115.66
2023-04-17T04:14:03.178Z,98116.88
2023-04-17T04:16:33.016Z,98110.09
2023-04-17T04:19:14.833Z,98115.69
2023-04-17T04:21:47.116Z,98121.28
2023-04-17T04:24:17.645Z,98127.69
2023-04-17T04:26:49.826Z,98122.47
2023-04-17T04:29:19.865Z,98128.88
2023-04-17T04:31:55.620Z,98127.28
2023-04-17T04:34:29.903Z,98133.69
2023-04-17T04:37:01.357Z,98128.47
2023-04-17T04:39:41.065Z,98136.84
2023-04-17T04:42:12.423Z,98131.31
2023-04-17T04:44:57.534Z,98141.28
2023-04-17T04:47:30.170Z,98140.47
2023-04-17T04:50:00.182Z,98143.69
2023-04-17T04:52:30.630Z,98142.09
2023-04-17T04:55:03.113Z,98148.44
2023-04-17T04:57:34.238Z,98151.66
2023-04-17T05:00:08.562Z,98160.44
2023-04-17T05:02:44.940Z,98154.44
2023-04-17T05:05:14.387Z,98163.59
2023-04-17T05:07:45.428Z,98152.41
2023-04-17T05:10:17.194Z,98162.78
2023-04-17T05:12:52.510Z,98156.34
2023-04-17T05:15:21.689Z,98150.75
2023-04-17T05:17:50.716Z,98161.91
2023-04-17T05:20:20.434Z,98159.88
2023-04-17T05:22:57.845Z,98157.03
2023-04-17T05:25:26.969Z,98169.00
2023-04-17T05:27:58.437Z,98162.97
2023-04-17T05:30:27.520Z,98167.28
2023-04-17T05:33:08.569Z,98180.06
2023-04-17T05:35:49.373Z,98175.19
2023-04-17T05:38:19.936Z,98175.94
2023-04-17T05:40:49.313Z,98177.84
2023-04-17T05:43:18.943Z,98174.16
2023-04-17T05:45:48.744Z,98175.66
2023-04-17T05:48:17.747Z,98190.75
2023-04-17T05:50:50.249Z,98181.88
2023-04-17T05:53:22.788Z,98185.00
2023-04-17T05:55:56.037Z,98180.00
2023-04-17T05:58:25.226Z,98183.84
2023-04-17T06:01:00.023Z,98190.09
2023-04-17T06:03:31.056Z,98184.78
2023-04-17T06:06:07.835Z,98190.69
2023-04-17T06:08:38.409Z,98200.16
2023-04-17T06:11:10.022Z,98200.78
2023-04-17T06:13:39.874Z,98202.22
2023-04-17T06:16:13.781Z,98201.22
2023-04-17T06:18:43.060Z,98190.50
2023-04-17T06:21:12.180Z,98195.94
2023-04-17T06:23:42.684Z,98200.47
2023-04-17T06:26:12.549Z,98199.03
2023-04-17T06:28:41.983Z,98201.47
2023-04-17T06:31:11.668Z,98203.97
2023-04-17T06:33:41.623Z,98208.06
2023-04-17T06:36:11.096Z,98202.91
2023-04-17T06:38:49.711Z,98215.00
2023-04-17T06:41:23.040Z,98216.66
2023-04-17T06:43:52.116Z,98231.78
2023-04-17T06:46:23.652Z,98226.63
2023-04-17T06:48:52.756Z,98230.72
2023-04-17T06:51:22.286Z,98230.06
2023-04-17T06:53:55.347Z,98226.16
2023-04-17T06:56:29.904Z,98232.03
2023-04-17T06:59:00.343Z,98237.41
2023-04-17T07:01:32.489Z,98229.94
2023-04-17T07:04:02.221Z,98234.38
2023-04-17T07:06:34.580Z,98232.53
2023-04-17T07:09:06.124Z,98230.31
2023-04-17T07:11:35.619Z,98223.66
2023-04-17T07:14:04.673Z,98225.91
2023-04-17T07:16:33.937Z,98228.53
2023-04-17T07:19:05.987Z,98226.88
2023-04-17T07:21:35.444Z,98223.59
2023-04-17T07:24:06.280Z,98218.84
2023-04-17T07:26:44.028Z,98229.78
2023-04-17T07:29:13.373Z,98219.53
2023-04-17T07:31:45.657Z,98223.66
2023-04-17T07:34:14.819Z,98218.69
2023-04-17T07:36:45.246Z,98227.25
2023-04-17T07:39:15.627Z,98228.03
2023-04-17T07:41:48.945Z,98220.78
2023-04-17T07:44:20.445Z,98240.28
2023-04-17T07:46:49.623Z,98238.41
2023-04-17T07:49:18.873Z,98234.09
2023-04-17T07:51:51.312Z,98235.66
2023-04-17T07:54:21.818Z,98242.34
2023-04-17T07:56:58.418Z,98242.09
2023-04-17T07:59:27.656Z,98239.47
2023-04-17T08:01:57.400Z,98251.34
2023-04-17T08:04:27.066Z,98240.50
2023-04-17T08:06:56.329Z,98252.78
2023-04-17T08:09:26.954Z,98239.59
2023-04-17T08:11:58.345Z,98245.41
2023-04-17T08:14:27.607Z,98241.97
2023-04-17T08:16:59.799Z,98237.69
2023-04-17T08:19:30.025Z,98247.25
2023-04-17T08:22:05.072Z,98239.91
2023-04-17T08:24:35.615Z,98239.94
2023-04-17T08:27:07.945Z,98245.09
2023-04-17T08:29:37.753Z,98251.53
2023-04-17T08:32:14.776Z,98243.22
2023-04-17T08:34:48.583Z,98240.28
2023-04-17T08:37:17.693Z,98244.28
2023-04-17T08:39:52.473Z,98245.50
2023-04-17T08:42:21.568Z,98245.22
2023-04-17T08:44:50.595Z,98246.44
2023-04-17T08:47:20.010Z,98242.88
2023-04-17T08:49:50.642Z,98245.72
2023-04-17T08:52:19.894Z,98246.38
2023-04-17T08:54:51.504Z,98232.63
2023-04-17T08:57:20.670Z,98248.84
2023-04-17T08:59:49.650Z,98239.50
2023-04-17T09:02:18.872Z,98236.16
2023-04-17T09:04:48.597Z,98239.59
2023-04-17T09:07:18.399Z,98244.09
2023-04-17T09:09:57.292Z,98233.72
2023-04-17T09:12:27.762Z,98236.69
2023-04-17T09:14:56.818Z,98235.56
2023-04-17T09:17:37.856Z,98223.59
2023-04-17T09:20:12.138Z,98223.09
2023-04-17T09:22:42.446Z,98235.88
2023-04-17T09:25:20.610Z,98236.66
2023-04-17T09:27:49.760Z,98219.72
2023-04-17T09:30:18.803Z,98224.81
2023-04-17T09:32:47.907Z,98224.66
2023-04-17T09:35:26.826Z,98218.75
2023-04-17T09:37:59.390Z,98227.59
2023-04-17T09:40:39.339Z,98229.44
2023-04-17T09:43:10.824Z,98228.78
2023-04-17T09:45:42.751Z,98226.78
2023-04-17T09:48:13.914Z,98227.16
2023-04-17T09:50:42.936Z,98229.84
2023-04-17T09:53:11.935Z,98222.94
2023-04-17T09:55:43.654Z,98227.66
2023-04-17T09:58:12.857Z,98229.75
2023-04-17T10:00:42.866Z,98229.84
2023-04-17T10:03:17.891Z,98231.47
2023-04-17T10:05:47.379Z,98217.84
2023-04-17T10:08:16.948Z,98226.50
2023-04-17T10:10:48.746Z,98220.78
2023-04-17T10:13:18.962Z,98223.06
2023-04-17T10:15:49.320Z,98227.03
2023-04-17T10:18:24.551Z,98228.78
2023-04-17T10:20:55.489Z,98221.81
2023-04-17T10:23:33.341Z,98215.63
2023-04-17T10:26:40.204Z,98215.16
2023-04-17T10:29:09.232Z,98211.06
2023-04-17T10:32:25.967Z,98211.22
2023-04-17T10:34:57.133Z,98202.78
2023-04-17T10:38:13.885Z,98204.34
2023-04-17T10:40:45.263Z,98207.09
2023-04-17T10:43:18.094Z,98205.63
2023-04-17T10:45:56.812Z,98198.53
2023-04-17T10:48:31.077Z,98199.34
2023-04-17T10:51:01.728Z,98198.72
2023-04-17T10:53:49.733Z,98193.03
2023-04-17T10:56:19.730Z,98200.56
2023-04-17T10:59:02.605Z,98188.75
2023-04-17T11:01:40.570Z,98189.53
2023-04-17T11:04:11.539Z,98194.81
2023-04-17T11:06:44.830Z,98187.91
2023-04-17T11:09:14.426Z,98188.56
2023-04-17T11:11:45.398Z,98192.38
2023-04-17T11:14:18.327Z,98177.91
2023-04-17T11:16:50.183Z,98186.94
2023-04-17T11:19:21.679Z,98175.00
2023-04-17T11:21:52.612Z,98176.94
2023-04-17T11:24:26.021Z,98191.59
2023-04-17T11:26:56.247Z,98184.69
2023-04-17T11:29:27.671Z,98176.41
2023-04-17T11:31:58.328Z,98178.00
2023-04-17T11:34:27.907Z,98180.19
2023-04-17T11:36:59.052Z,98181.94
2023-04-17T11:39:31.128Z,98177.56
2023-04-17T11:42:00.499Z,98174.28
2023-04-17T11:44:31.222Z,98180.63
2023-04-17T11:47:00.728Z,98180.94
2023-04-17T11:49:32.420Z,98192.78
2023-04-17T11:52:04.201Z,98176.44
2023-04-17T11:54:37.121Z,98181.03
2023-04-17T11:57:08.178Z,98175.19
2023-04-17T11:59:42.163Z,98179.56
2023-04-17T12:02:12.541Z,98177.00
2023-04-17T12:04:42.000Z,98173.81
2023-04-17T12:07:24.256Z,98182.44
2023-04-17T12:09:57.665Z,98179.22
2023-04-17T12:12:26.977Z,98171.09
2023-04-17T12:14:59.082Z,98175.19
2023-04-17T12:17:28.300Z,98167.56
2023-04-17T12:20:02.325Z,98169.19
2023-04-17T12:22:31.386Z,98173.66
2023-04-17T12:25:00.741Z,98173.16
2023-04-17T12:27:29.755Z,98172.84
2023-04-17T12:30:00.152Z,98169.69
2023-04-17T12:32:29.232Z,98158.66
2023-04-17T12:34:58.836Z,98156.44
2023-04-17T12:37:27.914Z,98158.84
2023-04-17T12:39:56.929Z,98159.94
2023-04-17T12:42:26.812Z,98163.63
2023-04-17T12:44:57.182Z,98158.63
2023-04-17T12:47:27.728Z,98169.81
2023-04-17T12:49:56.843Z,98167.16
2023-04-17T12:52:25.986Z,98164.91
2023-04-17T12:54:59.558Z,98159.03
2023-04-17T12:57:29.672Z,98165.94
2023-04-17T12:59:58.784Z,98161.28
2023-04-17T13:02:29.403Z,98152.81
2023-04-17T13:04:58.535Z,98159.28
2023-04-17T13:07:27.905Z,98149.28
2023-04-17T13:09:56.955Z,98153.59
2023-04-17T13:12:26.215Z,98167.38
2023-04-17T13:14:57.452Z,98164.56
2023-04-17T13:17:28.103Z,98149.97
2023-04-17T13:19:57.308Z,98160.13
2023-04-17T13:22:26.301Z,98162.03
2023-04-17T13:24:55.363Z,98154.91
2023-04-17T13:27:25.483Z,98151.00
2023-04-17T13:29:55.986Z,98150.78
2023-04-17T13:32:25.060Z,98153.88
2023-04-17T13:34:57.399Z,98140.94
2023-04-17T13:37:27.552Z,98150.81
2023-04-17T13:39:56.662Z,98136.78
2023-04-17T13:42:26.046Z,98130.09
2023-04-17T13:44:55.045Z,98136.16
2023-04-17T13:47:24.082Z,98138.53
2023-04-17T13:49:53.121Z,98148.44
2023-04-17T13:52:23.619Z,98151.53
2023-04-17T13:54:52.787Z,98139.84
2023-04-17T13:57:21.842Z,98133.91
2023-04-17T13:59:50.904Z,98147.31
2023-04-17T14:02:20.077Z,98148.22
2023-04-17T14:04:49.439Z,98138.47
2023-04-17T14:07:18.501Z,98118.28
2023-04-17T14:09:48.928Z,98129.13
2023-04-17T14:12:20.842Z,98126.03
2023-04-17T14:14:50.011Z,98127.94
2023-04-17T14:17:19.300Z,98125.13
2023-04-17T14:19:48.480Z,98133.59
2023-04-17T14:22:17.543Z,98132.34
2023-04-17T14:24:47.917Z,98124.94
2023-04-17T14:27:17.258Z,98124.16
2023-04-17T14:29:46.620Z,98114.56
2023-04-17T14:32:15.843Z,98120.03
2023-04-17T14:34:45.329Z,98102.72
2023-04-17T14:37:14.601Z,98113.16
2023-04-17T14:39:43.896Z,98115.22
2023-04-17T14:42:14.476Z,98114.13
2023-04-17T14:44:45.679Z,98115.69
2023-04-17T14:47:14.866Z,98114.59
2023-04-17T14:49:46.199Z,98108.38
2023-04-17T14:52:15.439Z,98105.47
2023-04-17T14:54:44.495Z,98100.19
2023-04-17T14:57:15.132Z,98087.84
2023-04-17T14:59:44.499Z,98103.50
2023-04-17T15:02:16.958Z,98092.97
2023-04-17T15:04:47.713Z,98106.34
2023-04-17T15:07:16.822Z,98103.41
2023-04-17T15:09:47.026Z,98113.78
2023-04-17T15:12:17.442Z,98117.47
2023-04-17T15:14:46.426Z,98111.13
2023-04-17T15:17:16.666Z,98104.91
2023-04-17T15:19:45.766Z,98109.25
2023-04-17T15:22:14.783Z,98101.72
2023-04-17T15:24:44.085Z,98110.75
2023-04-17T15:27:13.481Z,98102.09
2023-04-17T15:29:45.814Z,98104.22
2023-04-17T15:32:15.076Z,98098.50
2023-04-17T15:34:44.225Z,98107.47
2023-04-17T15:37:13.259Z,98107.50
2023-04-17T15:39:42.319Z,98100.75
2023-04-17T15:42:12.018Z,98106.75
2023-04-17T15:44:41.025Z,98101.44
2023-04-17T15:47:11.520Z,98089.13
2023-04-17T15:49:43.821Z,98096.03
2023-04-17T15:52:13.272Z,98086.25
2023-04-17T15:54:42.975Z,98075.31
2023-04-17T15:57:12.604Z,98070.88
2023-04-17T15:59:43.603Z,98094.34
2023-04-17T16:02:14.411Z,98081.00
2023-04-17T16:04:44.121Z,98085.75
2023-04-17T16:07:14.155Z,98083.19
2023-04-17T16:09:44.776Z,98084.44
2023-04-17T16:12:13.866Z,98078.56
2023-04-17T16:14:42.908Z,98081.44
2023-04-17T16:17:13.273Z,98081.41
2023-04-17T16:19:42.447Z,98079.03
2023-04-17T16:22:13.299Z,98079.50
2023-04-17T16:24:42.687Z,98077.13
2023-04-17T16:27:11.755Z,98082.66
2023-04-17T16:29:41.129Z,98081.09
2023-04-17T16:32:12.246Z,98084.22
2023-04-17T16:34:42.913Z,98079.66
2023-04-17T16:37:12.166Z,98088.38
2023-04-17T16:39:41.214Z,98091.38
2023-04-17T16:42:10.461Z,98092.34
2023-04-17T16:44:39.498Z,98096.94
2023-04-17T16:49:40.368Z,98105.63
2023-04-17T16:52:10.901Z,98104.66
2023-04-17T16:54:39.980Z,98103.13
2023-04-17T16:57:11.139Z,98096.75
2023-04-17T16:59:40.447Z,98097.03
2023-04-17T17:02:09.792Z,98100.41
2023-04-17T17:04:38.987Z,98104.66
2023-04-17T17:07:08.137Z,98092.56
2023-04-17T17:09:38.626Z,98099.84
2023-04-17T17:12:08.407Z,98100.69
2023-04-17T17:14:37.672Z,98105.56
2023-04-17T17:17:06.682Z,98097.50
2023-04-17T17:19:35.943Z,98101.09
2023-04-17T17:22:05.005Z,98099.94
2023-04-17T17:24:34.524Z,98100.56
2023-04-17T17:27:05.695Z,98102.88
2023-04-17T17:29:35.023Z,98113.94
2023-04-17T17:32:04.218Z,98099.59
2023-04-17T17:34:33.656Z,98110.81
2023-04-17T17:37:02.789Z,98101.13
2023-04-17T17:39:31.925Z,98110.41
2023-04-17T17:42:03.031Z,98115.63
2023-04-17T17:44:33.464Z,98113.13
2023-04-17T17:47:04.222Z,98111.31
2023-04-17T17:49:34.254Z,98113.03
2023-04-17T17:52:03.756Z,98114.31
2023-04-17T17:54:37.505Z,98116.59
2023-04-17T17:57:07.507Z,98119.22
2023-04-17T17:59:38.320Z,98113.94
2023-04-17T18:02:08.111Z,98111.91
2023-04-17T18:04:38.017Z,98111.28
2023-04-17T18:07:09.896Z,98110.75
2023-04-17T18:09:39.054Z,98118.97
2023-04-17T18:12:09.184Z,98112.34
2023-04-17T18:14:39.597Z,98119.75
2023-04-17T18:17:08.711Z,98123.09
2023-04-17T18:19:40.816Z,98126.06
2023-04-17T18:22:10.326Z,98134.69
2023-04-17T18:24:39.672Z,98126.75
2023-04-17T18:27:08.745Z,98130.38
2023-04-17T18:29:39.176Z,98135.56
2023-04-17T18:32:08.202Z,98136.72
2023-04-17T18:34:37.127Z,98138.72
2023-04-17T18:37:06.646Z,98143.63
2023-04-17T18:39:35.668Z,98155.56
2023-04-17T18:42:05.065Z,98154.13
2023-04-17T18:44:34.054Z,98153.16
2023-04-17T18:47:06.073Z,98154.16
2023-04-17T18:49:35.181Z,98151.97
2023-04-17T18:52:05.688Z,98144.38
2023-04-17T18:54:35.091Z,98154.31
2023-04-17T18:57:04.156Z,98158.75
2023-04-17T18:59:33.150Z,98166.56
2023-04-17T19:02:02.514Z,98161.06
2023-04-17T19:04:33.109Z,98162.09
2023-04-17T19:07:03.160Z,98181.91
2023-04-17T19:09:32.441Z,98180.69
2023-04-17T19:12:02.954Z,98168.28
2023-04-17T19:14:32.761Z,98166.72
2023-04-17T19:17:01.813Z,98180.94
2023-04-17T19:19:32.206Z,98178.31
2023-04-17T19:22:01.301Z,98168.16
2023-04-17T19:24:30.279Z,98180.31
2023-04-17T19:26:59.303Z,98162.88
2023-04-17T19:29:30.686Z,98161.19
2023-04-17T19:31:59.945Z,98159.16
2023-04-17T19:34:29.293Z,98166.41
2023-04-17T19:36:59.631Z,98164.81
2023-04-17T19:39:29.479Z,98179.16
2023-04-17T19:41:58.868Z,98162.03
2023-04-17T19:44:28.875Z,98170.66
2023-04-17T19:46:59.960Z,98170.38
2023-04-17T19:49:29.713Z,98164.75
2023-04-17T19:52:01.036Z,98157.03
2023-04-17T19:54:30.536Z,98162.91
2023-04-17T19:56:59.536Z,98163.91
2023-04-17T19:59:28.518Z,98163.78
2023-04-17T20:01:57.738Z,98161.53
2023-04-17T20:04:26.851Z,98153.63
2023-04-17T20:06:55.963Z,98172.25
2023-04-17T20:09:26.640Z,98173.06
2023-04-17T20:11:55.700Z,98162.66
2023-04-17T20:14:25.770Z,98161.97
2023-04-17T20:16:54.854Z,98160.97
2023-04-17T20:19:24.832Z,98166.31
2023-04-17T20:21:53.794Z,98163.19
2023-04-17T20:24:23.116Z,98164.03
2023-04-17T20:26:53.828Z,98161.69
2023-04-17T20:29:23.835Z,98153.75
2023-04-17T20:31:52.842Z,98145.66
2023-04-17T20:34:22.011Z,98149.69
2023-04-17T20:36:51.006Z,98148.88
2023-04-17T20:39:20.014Z,98155.34
2023-04-17T20:41:49.073Z,98152.03
2023-04-17T20:44:19.699Z,98162.56
2023-04-17T20:46:48.816Z,98162.53
2023-04-17T20:49:17.811Z,98161.75
2023-04-17T20:51:46.817Z,98157.03
2023-04-17T20:54:15.965Z,98161.84
2023-04-17T20:56:45.407Z,98154.25
2023-04-17T20:59:14.420Z,98167.44
2023-04-17T21:01:44.912Z,98156.53
2023-04-17T21:04:14.192Z,98166.25
2023-04-17T21:06:43.353Z,98165.09
2023-04-17T21:09:14.233Z,98162.34
2023-04-17T21:11:43.357Z,98169.97
2023-04-17T21:14:13.856Z,98166.00
2023-04-17T21:16:45.466Z,98170.00
2023-04-17T21:19:15.936Z,98163.56
2023-04-17T21:21:44.920Z,98172.81
2023-04-17T21:24:14.209Z,98174.81
2023-04-17T21:26:43.342Z,98179.63
2023-04-17T21:29:12.342Z,98181.59
2023-04-17T21:31:41.352Z,98180.03
2023-04-17T21:34:12.198Z,98182.03
2023-04-17T21:36:41.529Z,98194.00
2023-04-17T21:39:10.547Z,98179.63
2023-04-17T21:41:39.498Z,98186.03
2023-04-17T21:44:10.395Z,98168.44
2023-04-17T21:46:39.839Z,98174.78
2023-04-17T21:49:08.927Z,98175.59
2023-04-17T21:51:39.384Z,98180.56
2023-04-17T21:54:09.562Z,98182.53
2023-04-17T21:56:38.599Z,98181.25
2023-04-17T21:59:07.532Z,98178.38
2023-04-17T22:01:36.578Z,98183.06
2023-04-17T22:04:06.060Z,98172.34
2023-04-17T22:06:38.162Z,98176.44
2023-04-17T22:09:08.789Z,98179.84
2023-04-17T22:11:39.377Z,98179.00
2023-04-17T22:14:08.377Z,98177.81
2023-04-17T22:16:37.452Z,98178.84
2023-04-17T22:19:06.802Z,98177.94
2023-04-17T22:21:35.918Z,98188.72
2023-04-17T22:24:07.041Z,98187.41
2023-04-17T22:26:36.143Z,98182.50
2023-04-17T22:29:05.259Z,98183.94
2023-04-17T22:31:34.378Z,98192.66
2023-04-17T22:34:03.702Z,98193.41
2023-04-17T22:36:32.711Z,98189.34
2023-04-17T22:39:01.684Z,98192.03
2023-04-17T22:41:32.130Z,98188.72
2023-04-17T22:44:01.162Z,98189.75
2023-04-17T22:46:30.188Z,98182.13
2023-04-17T22:49:00.625Z,98188.06
2023-04-17T22:51:29.682Z,98181.00
2023-04-17T22:53:59.957Z,98172.66
2023-04-17T22:56:32.111Z,98181.31
2023-04-17T22:59:01.121Z,98175.19
2023-04-17T23:01:30.111Z,98178.72
2023-04-17T23:03:59.086Z,98183.38
2023-04-17T23:06:28.118Z,98184.72
2023-04-17T23:08:58.289Z,98185.66
2023-04-17T23:11:27.310Z,98182.91
2023-04-17T23:13:59.583Z,98180.31
2023-04-17T23:16:30.279Z,98179.94
2023-04-17T23:18:59.752Z,98173.34
2023-04-17T23:21:28.765Z,98174.91
2023-04-17T23:23:57.808Z,98179.78
2023-04-17T23:26:27.088Z,98178.25
2023-04-17T23:28:57.446Z,98169.44
2023-04-17T23:31:26.530Z,98177.78
2023-04-17T23:33:55.502Z,98173.34
2023-04-17T23:36:24.504Z,98180.66
2023-04-17T23:38:53.835Z,98168.16
2023-04-17T23:41:22.842Z,98162.06
2023-04-17T23:43:52.537Z,98161.25
2023-04-17T23:46:23.211Z,98156.53
2023-04-17T23:48:52.352Z,98156.59
2023-04-17T23:51:21.474Z,98156.06
2023-04-17T23:53:50.757Z,98148.59
2023-04-17T23:56:22.140Z,98154.38
2023-04-17T23:58:51.276Z,98145.53
